Time;durP1;ratioP1;P1;durP2;ratioP2;P2;SDS_P1;SDS_P2;PMS_P1;PMS_P2;Temp;Humidity;BMP_temperature;BMP_pressure;BME280_temperature;BME280_humidity;BME280_pressure;Samples;Min_cycle;Max_cycle;Signal;HPM_P1;HPM_P2
2022/10/14 00:00:08;;;;;;;99.95;38.05;;;11.10;99.90;;;;;;6219565;23;20020;-87
2022/10/14 00:02:51;;;;;;;112.82;44.67;;;12.30;99.90;;;;;;6270085;22;20019;-87
2022/10/14 00:05:17;;;;;;;101.50;38.97;;;12.30;99.90;;;;;;6276083;22;20024;-87
2022/10/14 00:07:43;;;;;;;83.50;35.33;;;13.70;99.90;;;;;;6250368;22;20030;-87
2022/10/14 00:10:12;;;;;;;112.97;42.65;;;12.20;99.90;;;;;;6250391;22;20023;-87
2022/10/14 00:12:38;;;;;;;91.93;36.63;;;12.20;99.90;;;;;;6276446;22;20016;-87
2022/10/14 00:15:04;;;;;;;99.82;38.20;;;12.70;99.90;;;;;;6277044;22;20393;-87
2022/10/14 00:17:30;;;;;;;103.20;38.67;;;12.20;99.90;;;;;;6276879;22;20053;-86
2022/10/14 00:19:56;;;;;;;97.38;38.10;;;12.20;99.90;;;;;;6276516;22;20128;-86
2022/10/14 00:22:21;;;;;;;89.20;37.25;;;12.20;99.90;;;;;;6274828;22;20024;-86
2022/10/14 00:24:56;;;;;;;97.70;36.97;;;12.70;99.90;;;;;;6249798;22;20012;-86
2022/10/14 00:27:22;;;;;;;102.70;37.47;;;12.20;99.90;;;;;;6276235;22;20332;-86
2022/10/14 00:30:00;;;;;;;92.88;36.17;;;13.10;99.90;;;;;;6249521;22;20016;-86
2022/10/14 00:32:25;;;;;;;106.05;37.60;;;12.80;99.90;;;;;;6247645;22;20912;-86
2022/10/14 00:35:00;;;;;;;98.35;35.50;;;12.20;99.90;;;;;;6277061;22;20051;-86
2022/10/14 00:37:26;;;;;;;91.05;35.10;;;11.90;99.90;;;;;;6275245;22;20379;-86
2022/10/14 00:44:02;;;;;;;96.88;35.10;;;12.10;99.90;;;;;;6249778;22;20016;-86
2022/10/14 00:46:43;;;;;;;85.55;34.33;;;12.20;99.90;;;;;;6248348;22;20019;-86
2022/10/14 00:49:10;;;;;;;93.85;35.97;;;11.90;99.90;;;;;;6276716;22;20016;-86
2022/10/14 00:51:53;;;;;;;95.10;35.50;;;12.70;99.90;;;;;;6277147;22;20087;-86
2022/10/14 00:54:23;;;;;;;85.40;34.47;;;13.30;99.90;;;;;;6248441;22;20459;-86
2022/10/14 00:56:50;;;;;;;92.07;35.78;;;12.10;99.90;;;;;;6249985;22;20052;-86
2022/10/14 00:59:16;;;;;;;98.45;36.20;;;12.10;99.90;;;;;;6249446;22;20019;-86
2022/10/14 01:01:44;;;;;;;95.95;35.67;;;12.60;99.90;;;;;;6275964;22;20011;-86
2022/10/14 01:04:10;;;;;;;102.47;35.03;;;12.10;99.90;;;;;;6249146;22;20061;-86
2022/10/14 01:06:40;;;;;;;87.00;33.70;;;12.10;99.90;;;;;;6249479;22;20454;-86
2022/10/14 01:09:28;;;;;;;86.90;33.95;;;11.90;99.90;;;;;;6276078;22;20114;-86
2022/10/14 01:12:02;;;;;;;77.68;31.40;;;12.00;99.90;;;;;;6249552;22;20016;-86
2022/10/14 01:14:41;;;;;;;85.28;32.35;;;12.00;99.90;;;;;;6249243;22;20056;-86
2022/10/14 01:17:25;;;;;;;82.40;31.23;;;12.00;99.90;;;;;;6276904;22;20011;-86
2022/10/14 01:20:25;;;;;;;84.97;31.75;;;12.90;99.90;;;;;;6249107;22;20015;-86
2022/10/14 01:23:12;;;;;;;76.30;30.60;;;11.90;99.90;;;;;;6249197;22;20015;-87
2022/10/14 01:26:19;;;;;;;65.10;27.08;;;11.80;99.90;;;;;;6249884;22;20015;-86
2022/10/14 01:29:09;;;;;;;62.22;26.45;;;11.80;99.90;;;;;;6248315;22;20019;-86
2022/10/14 01:31:44;;;;;;;69.22;26.23;;;11.70;99.90;;;;;;6276631;22;20020;-86
2022/10/14 01:34:15;;;;;;;63.70;25.95;;;11.60;99.90;;;;;;6248536;22;20026;-86
2022/10/14 01:36:46;;;;;;;63.50;26.73;;;12.60;99.90;;;;;;6275863;22;20023;-86
2022/10/14 01:39:28;;;;;;;74.07;26.42;;;11.50;99.90;;;;;;6249159;22;20073;-86
2022/10/14 01:42:23;;;;;;;69.05;26.48;;;11.40;99.90;;;;;;6276432;22;20016;-86
2022/10/14 01:45:09;;;;;;;72.38;27.02;;;11.30;99.90;;;;;;6255023;22;20039;-86
2022/10/14 01:47:40;;;;;;;75.90;27.17;;;11.20;99.90;;;;;;6249589;22;20107;-86
2022/10/14 01:50:14;;;;;;;70.22;26.63;;;11.20;99.90;;;;;;6248335;22;20024;-86
2022/10/14 01:52:46;;;;;;;69.38;26.58;;;11.20;99.90;;;;;;6249408;22;20081;-86
2022/10/14 01:55:17;;;;;;;70.22;26.65;;;11.70;99.90;;;;;;6275635;22;20521;-86
2022/10/14 01:57:44;;;;;;;71.78;26.05;;;11.20;99.90;;;;;;6275608;22;20016;-86
2022/10/14 02:00:10;;;;;;;69.10;25.83;;;12.10;99.90;;;;;;6276240;22;20023;-86
2022/10/14 02:02:37;;;;;;;77.50;26.17;;;11.20;99.90;;;;;;6275243;22;20012;-86
2022/10/14 02:05:15;;;;;;;75.55;25.88;;;11.30;99.90;;;;;;6247640;22;20103;-86
2022/10/14 02:08:15;;;;;;;83.80;25.95;;;11.20;99.90;;;;;;6275961;22;20008;-86
2022/10/14 02:11:04;;;;;;;83.35;25.95;;;11.20;99.90;;;;;;6194468;22;20026;-86
2022/10/14 02:13:48;;;;;;;102.82;27.83;;;11.20;99.90;;;;;;6233381;22;20352;-86
2022/10/14 02:16:55;;;;;;;;;;;11.30;99.90;;;;;;6248993;22;20051;-86
2022/10/14 02:19:39;;;;;;;96.63;27.50;;;11.60;99.90;;;;;;6120658;23;19955;-86
2022/10/14 02:22:28;;;;;;;154.60;30.20;;;11.20;99.90;;;;;;6098480;23;20018;-86
2022/10/14 02:24:58;;;;;;;154.85;30.95;;;11.20;99.90;;;;;;6247871;22;20011;-86
2022/10/14 02:27:27;;;;;;;126.15;28.05;;;11.20;99.90;;;;;;6248644;22;20026;-86
2022/10/14 02:29:55;;;;;;;125.82;28.85;;;11.10;99.90;;;;;;6276414;22;20012;-86
2022/10/14 02:32:23;;;;;;;163.77;30.75;;;11.20;99.90;;;;;;6247241;22;20095;-87
2022/10/14 02:34:54;;;;;;;194.75;31.88;;;11.20;99.90;;;;;;6248494;22;20015;-86
2022/10/14 02:37:22;;;;;;;218.05;23.00;;;11.10;99.90;;;;;;6275736;22;20058;-86
2022/10/14 02:39:54;;;;;;;281.50;23.38;;;11.10;99.90;;;;;;6275282;22;20038;-86
2022/10/14 02:42:20;;;;;;;191.00;19.00;;;11.00;99.90;;;;;;6248265;22;20467;-86
2022/10/14 02:44:57;;;;;;;173.18;18.35;;;10.90;99.90;;;;;;6275813;22;20019;-87
2022/10/14 02:47:24;;;;;;;202.45;18.00;;;11.80;99.90;;;;;;6248772;22;20436;-87
2022/10/14 02:49:50;;;;;;;187.93;17.20;;;10.80;99.90;;;;;;6251001;22;20023;-86
2022/10/14 02:52:19;;;;;;;185.07;14.63;;;10.70;99.90;;;;;;6248861;22;20069;-86
2022/10/14 02:54:45;;;;;;;150.30;16.98;;;10.60;99.90;;;;;;6248583;22;20038;-86
2022/10/14 02:57:13;;;;;;;164.45;17.13;;;10.60;99.90;;;;;;6275967;22;20444;-86
2022/10/14 02:59:39;;;;;;;179.82;18.35;;;10.50;99.90;;;;;;6248759;22;20023;-86
2022/10/14 03:02:06;;;;;;;152.05;17.02;;;11.40;99.90;;;;;;6275318;22;20041;-86
2022/10/14 03:04:32;;;;;;;135.10;17.35;;;10.50;99.90;;;;;;6248648;22;20020;-86
2022/10/14 03:06:58;;;;;;;160.38;17.20;;;10.90;99.90;;;;;;6276053;22;20012;-86
2022/10/14 03:09:23;;;;;;;158.48;16.80;;;10.60;99.90;;;;;;6247030;22;20020;-86
2022/10/14 03:11:49;;;;;;;135.70;15.50;;;10.50;99.90;;;;;;6276097;22;20077;-86
2022/10/14 03:14:15;;;;;;;132.45;15.02;;;11.30;99.90;;;;;;6273932;22;20020;-86
2022/10/14 03:16:40;;;;;;;130.32;16.48;;;10.50;99.90;;;;;;6248707;22;20011;-86
2022/10/14 03:19:06;;;;;;;135.48;15.48;;;10.60;99.90;;;;;;6248470;22;20367;-86
2022/10/14 03:21:32;;;;;;;115.22;15.15;;;10.50;99.90;;;;;;6247172;22;20504;-86
2022/10/14 03:23:57;;;;;;;142.05;15.32;;;10.50;99.90;;;;;;6249135;22;20020;-86
2022/10/14 03:26:36;;;;;;;127.38;15.70;;;11.90;99.90;;;;;;6247961;22;20039;-86
2022/10/14 03:32:18;;;;;;;113.13;14.65;;;10.50;99.90;;;;;;6275093;22;20119;-86
2022/10/14 03:34:50;;;;;;;107.82;15.18;;;10.60;99.90;;;;;;6275355;22;20317;-86
2022/10/14 03:37:38;;;;;;;126.93;16.77;;;10.50;99.90;;;;;;6246974;22;20015;-86
2022/10/14 03:40:47;;;;;;;137.50;18.00;;;10.60;99.90;;;;;;6275864;22;20138;-87
2022/10/14 04:01:49;;;;;;;118.10;26.00;;;10.80;99.90;;;;;;6222705;22;20028;-87
2022/10/14 04:04:15;;;;;;;109.50;26.27;;;10.70;99.90;;;;;;6274688;22;20095;-87
2022/10/14 04:06:40;;;;;;;106.43;24.63;;;11.60;99.90;;;;;;6237364;22;20040;-87
2022/10/14 04:09:12;;;;;;;129.05;26.02;;;10.50;99.90;;;;;;6249612;22;20015;-86
2022/10/14 04:11:50;;;;;;;105.25;25.63;;;10.70;99.90;;;;;;6276590;22;20011;-86
2022/10/14 04:14:16;;;;;;;103.72;24.98;;;10.60;99.90;;;;;;6277057;22;20016;-86
2022/10/14 04:16:41;;;;;;;119.68;27.10;;;11.10;99.90;;;;;;6277636;22;20061;-86
2022/10/14 04:19:22;;;;;;;111.03;25.52;;;10.80;99.90;;;;;;6275831;22;20030;-86
2022/10/14 04:22:06;;;;;;;96.95;24.70;;;11.80;99.90;;;;;;6249617;22;20041;-87
2022/10/14 04:24:44;;;;;;;;;;;11.70;99.90;;;;;;6249095;22;20035;-86
2022/10/14 04:27:28;;;;;;;106.28;25.42;;;10.40;99.90;;;;;;6276910;22;19922;-86
2022/10/14 04:29:56;;;;;;;;;;;10.90;99.90;;;;;;6277300;22;20552;-86
2022/10/14 04:32:22;;;;;;;100.45;27.23;;;11.80;99.90;;;;;;6275716;22;20017;-86
2022/10/14 04:34:48;;;;;;;99.63;26.02;;;12.40;99.90;;;;;;6249538;22;20020;-86
2022/10/14 04:37:13;;;;;;;98.88;26.05;;;10.90;99.90;;;;;;6249355;22;20094;-86
2022/10/14 04:39:39;;;;;;;105.93;25.85;;;11.80;99.90;;;;;;6276084;22;20037;-86
2022/10/14 04:42:23;;;;;;;102.53;26.48;;;11.60;99.90;;;;;;6249751;22;20062;-86
2022/10/14 04:44:55;;;;;;;115.18;27.20;;;11.70;99.90;;;;;;6249766;22;20071;-86
2022/10/14 04:47:20;;;;;;;98.72;25.73;;;10.00;99.90;;;;;;6248304;22;20011;-86
2022/10/14 04:49:55;;;;;;;106.05;26.73;;;11.70;99.90;;;;;;6249680;22;20070;-86
2022/10/14 04:52:33;;;;;;;102.82;26.08;;;12.10;99.90;;;;;;6276769;22;20015;-87
2022/10/14 04:55:14;;;;;;;93.90;25.77;;;12.20;99.90;;;;;;6249247;22;20019;-87
2022/10/14 04:58:33;;;;;;;82.45;24.50;;;10.90;99.90;;;;;;6249376;22;20012;-87
2022/10/14 05:01:14;;;;;;;86.88;23.83;;;11.10;99.90;;;;;;6098330;23;20062;-86
2022/10/14 05:03:46;;;;;;;72.07;23.60;;;11.00;99.90;;;;;;6098915;23;20064;-86
2022/10/14 05:06:16;;;;;;;63.88;22.45;;;10.20;99.90;;;;;;6117036;23;20392;-87
2022/10/14 05:08:48;;;;;;;51.80;20.02;;;11.90;99.90;;;;;;6069430;23;20094;-86
2022/10/14 05:11:29;;;;;;;50.08;18.83;;;9.80;99.90;;;;;;6094042;23;20114;-86
2022/10/14 05:13:54;;;;;;;51.50;19.25;;;12.30;99.90;;;;;;6069364;23;20048;-86
2022/10/14 05:16:20;;;;;;;53.40;19.25;;;10.80;99.90;;;;;;6093935;23;20019;-86
2022/10/14 05:18:49;;;;;;;56.90;20.05;;;10.30;99.90;;;;;;6156203;23;20023;-86
2022/10/14 05:21:14;;;;;;;57.20;20.17;;;10.00;99.90;;;;;;6217966;23;20016;-86
2022/10/14 05:23:40;;;;;;;54.10;19.25;;;10.40;99.90;;;;;;6218772;23;20035;-86
2022/10/14 05:26:09;;;;;;;67.72;21.77;;;12.20;99.90;;;;;;6245905;23;20091;-86
2022/10/14 05:28:37;;;;;;;58.80;21.33;;;10.50;99.90;;;;;;6218012;23;20052;-86
2022/10/14 05:31:20;;;;;;;60.80;20.42;;;11.40;99.90;;;;;;6218513;23;20024;-86
2022/10/14 05:33:58;;;;;;;46.22;15.90;;;10.10;99.90;;;;;;6245814;23;20328;-86
2022/10/14 05:36:24;;;;;;;47.60;16.35;;;10.90;99.90;;;;;;6217808;23;20016;-86
2022/10/14 05:38:57;;;;;;;50.20;16.88;;;12.00;99.90;;;;;;6218550;23;20022;-86
2022/10/14 05:41:28;;;;;;;49.97;17.05;;;11.60;99.90;;;;;;6245879;23;20058;-86
2022/10/14 05:43:54;;;;;;;50.20;16.48;;;11.60;99.90;;;;;;6217755;23;20047;-86
2022/10/14 05:54:09;;;;;;;40.25;13.05;;;10.50;99.90;;;;;;6243970;22;20053;-86
2022/10/14 05:56:38;;;;;;;38.13;12.40;;;10.70;99.90;;;;;;6275141;22;20087;-86
2022/10/14 05:59:10;;;;;;;32.85;11.77;;;10.50;99.90;;;;;;6240210;22;20020;-89
2022/10/14 06:01:51;;;;;;;37.97;12.55;;;10.60;99.90;;;;;;6249267;22;20024;-88
2022/10/14 06:04:20;;;;;;;36.83;12.15;;;10.60;99.90;;;;;;6275055;22;20016;-82
2022/10/14 06:06:52;;;;;;;34.13;12.80;;;10.70;99.90;;;;;;6249294;22;20435;-82
2022/10/14 06:09:29;;;;;;;41.88;12.40;;;10.30;99.90;;;;;;6276392;22;20047;-82
2022/10/14 06:12:02;;;;;;;38.22;12.82;;;10.50;99.90;;;;;;6275903;22;20086;-83
2022/10/14 06:14:27;;;;;;;44.47;12.65;;;10.60;99.90;;;;;;6248699;22;20023;-83
2022/10/14 06:20:34;;;;;;;35.38;13.15;;;10.70;99.90;;;;;;6275718;22;20023;-82
2022/10/14 06:34:06;;;;;;;36.50;14.23;;;10.60;99.90;;;;;;6248265;22;20503;-82
2022/10/14 06:36:32;;;;;;;39.53;14.32;;;12.30;99.90;;;;;;6276190;22;20047;-81
2022/10/14 06:38:57;;;;;;;35.95;13.02;;;10.60;99.90;;;;;;6246956;22;20436;-82
2022/10/14 06:41:23;;;;;;;39.22;13.95;;;11.90;99.90;;;;;;6275135;22;20020;-81
2022/10/14 06:43:49;;;;;;;37.05;13.65;;;10.60;99.90;;;;;;6247998;22;20019;-82
2022/10/14 06:46:17;;;;;;;42.80;15.20;;;11.70;99.90;;;;;;6247294;22;20008;-82
2022/10/14 06:48:46;;;;;;;39.88;14.30;;;10.60;99.90;;;;;;6248340;22;20491;-82
2022/10/14 06:51:12;;;;;;;39.08;14.10;;;10.60;99.90;;;;;;6263107;22;20322;-82
2022/10/14 06:53:38;;;;;;;43.45;14.60;;;10.60;99.90;;;;;;6247271;22;20016;-82
2022/10/14 06:56:05;;;;;;;42.92;15.05;;;10.70;99.90;;;;;;6248725;22;20450;-82
2022/10/14 06:58:32;;;;;;;40.53;14.15;;;10.70;99.90;;;;;;6248442;22;20030;-81
2022/10/14 07:01:05;;;;;;;41.85;13.65;;;10.70;99.90;;;;;;6247865;22;20392;-82
2022/10/14 07:03:38;;;;;;;43.70;14.90;;;10.80;99.90;;;;;;6248412;22;20014;-81
2022/10/14 07:06:07;;;;;;;44.80;14.68;;;10.80;99.90;;;;;;6248650;22;20069;-82
2022/10/14 07:08:33;;;;;;;44.30;16.20;;;11.40;99.90;;;;;;6248118;22;20015;-81
2022/10/14 07:10:59;;;;;;;39.38;14.10;;;10.90;99.90;;;;;;6249123;22;20018;-81
2022/10/14 07:13:27;;;;;;;44.78;15.13;;;11.40;99.90;;;;;;6274887;22;20023;-81
2022/10/14 07:15:53;;;;;;;44.33;15.68;;;10.40;99.90;;;;;;6276321;22;20064;-81
2022/10/14 07:18:19;;;;;;;49.38;15.45;;;11.80;99.90;;;;;;6275394;22;20440;-82
2022/10/14 07:20:45;;;;;;;43.05;15.77;;;11.90;99.90;;;;;;6275083;22;20015;-81
2022/10/14 07:23:11;;;;;;;43.30;15.73;;;11.20;99.90;;;;;;6248355;22;20462;-82
2022/10/14 07:25:37;;;;;;;38.92;15.20;;;11.20;99.90;;;;;;6248833;22;20020;-81
2022/10/14 07:28:03;;;;;;;41.72;15.23;;;11.30;99.90;;;;;;6247782;22;20023;-82
2022/10/14 07:30:30;;;;;;;42.17;15.52;;;11.30;99.90;;;;;;6247259;22;20401;-81
2022/10/14 07:32:55;;;;;;;45.72;15.07;;;11.40;99.90;;;;;;6277041;22;20023;-82
2022/10/14 07:35:27;;;;;;;43.42;15.57;;;11.40;99.90;;;;;;6248836;22;20339;-82
2022/10/14 07:37:53;;;;;;;43.97;14.20;;;11.50;99.90;;;;;;6250320;22;20445;-81
2022/10/14 07:40:19;;;;;;;39.25;14.77;;;11.50;99.90;;;;;;6277012;22;20367;-81
2022/10/14 07:42:44;;;;;;;39.28;14.30;;;11.60;99.90;;;;;;6249552;22;20015;-82
2022/10/14 07:45:14;;;;;;;35.60;14.23;;;11.60;99.90;;;;;;6249853;22;20016;-81
2022/10/14 07:47:47;;;;;;;37.10;13.73;;;11.60;99.90;;;;;;6277715;22;20011;-81
2022/10/14 07:50:13;;;;;;;38.35;14.50;;;11.60;99.90;;;;;;6248991;22;20348;-81
2022/10/14 07:52:38;;;;;;;37.03;14.38;;;12.30;99.90;;;;;;6275997;22;20016;-81
2022/10/14 07:55:05;;;;;;;39.65;13.70;;;11.60;99.90;;;;;;6249875;22;20038;-81
2022/10/14 07:57:31;;;;;;;43.00;14.65;;;11.60;99.90;;;;;;6276642;22;20091;-81
2022/10/14 07:59:57;;;;;;;41.70;14.55;;;11.70;99.90;;;;;;6249897;22;20054;-81
2022/10/14 08:02:22;;;;;;;45.40;15.70;;;11.70;99.90;;;;;;6249745;22;20017;-81
2022/10/14 08:04:53;;;;;;;42.42;14.50;;;11.80;99.90;;;;;;6276218;22;20019;-81
2022/10/14 08:07:19;;;;;;;43.58;15.70;;;11.80;99.90;;;;;;6276875;22;20473;-81
2022/10/14 08:09:44;;;;;;;44.92;16.52;;;11.80;99.90;;;;;;6249489;22;20020;-81
2022/10/14 08:12:10;;;;;;;43.38;17.65;;;12.60;99.90;;;;;;6249841;22;20015;-80
2022/10/14 08:14:36;;;;;;;46.55;17.38;;;11.80;99.90;;;;;;6277811;22;20101;-81
2022/10/14 08:17:02;;;;;;;43.13;16.02;;;12.90;99.90;;;;;;6249584;22;20092;-81
2022/10/14 08:19:27;;;;;;;47.90;18.15;;;11.90;99.90;;;;;;6249658;22;20012;-81
2022/10/14 08:21:56;;;;;;;52.20;18.23;;;11.90;99.90;;;;;;6276461;22;20015;-81
2022/10/14 08:24:21;;;;;;;47.75;17.83;;;11.90;99.90;;;;;;6248818;22;20065;-81
2022/10/14 08:26:50;;;;;;;54.15;18.63;;;11.90;99.90;;;;;;6250244;22;20024;-81
2022/10/14 08:29:16;;;;;;;50.88;18.67;;;13.10;99.90;;;;;;6277167;22;20016;-81
2022/10/14 08:31:45;;;;;;;56.10;18.98;;;12.00;99.90;;;;;;6249031;22;20091;-81
2022/10/14 08:34:10;;;;;;;57.47;19.27;;;12.00;99.90;;;;;;6249370;22;20020;-81
2022/10/14 08:36:36;;;;;;;54.17;19.77;;;12.30;99.90;;;;;;6248861;22;20713;-81
2022/10/14 08:39:05;;;;;;;56.83;17.98;;;12.00;99.90;;;;;;6248859;22;20011;-82
2022/10/14 08:41:42;;;;;;;52.65;17.73;;;12.00;99.90;;;;;;6276770;22;20058;-81
2022/10/14 08:44:38;;;;;;;53.40;18.60;;;12.00;99.90;;;;;;6248932;22;20068;-81
2022/10/14 08:55:04;;;;;;;52.60;17.65;;;12.00;99.90;;;;;;6123793;23;20096;-81
2022/10/14 08:57:41;;;;;;;51.08;17.40;;;12.20;99.90;;;;;;6123658;22;20383;-80
2022/10/14 09:09:07;;;;;;;49.90;18.17;;;12.30;99.90;;;;;;6264027;22;20531;-80
2022/10/14 09:11:44;;;;;;;47.75;17.50;;;12.30;99.90;;;;;;6249612;22;20027;-81
2022/10/14 09:14:16;;;;;;;46.40;17.58;;;12.30;99.90;;;;;;6248232;22;20016;-80
2022/10/14 09:16:45;;;;;;;51.45;19.10;;;12.30;99.90;;;;;;6276956;22;20015;-82
2022/10/14 09:19:33;;;;;;;51.38;18.73;;;12.30;99.90;;;;;;6276587;22;20018;-81
2022/10/14 09:22:00;;;;;;;52.97;18.60;;;12.30;99.90;;;;;;6249166;22;20014;-81
2022/10/14 09:24:36;;;;;;;47.15;17.77;;;12.80;99.90;;;;;;6277959;22;20027;-81
2022/10/14 09:27:16;;;;;;;47.50;17.73;;;12.30;99.90;;;;;;6276164;22;20016;-83
2022/10/14 09:29:44;;;;;;;48.30;18.67;;;12.40;99.90;;;;;;6249320;22;20020;-81
2022/10/14 09:32:30;;;;;;;47.42;19.65;;;12.50;99.90;;;;;;6248953;22;20075;-81
2022/10/14 09:34:57;;;;;;;52.25;18.70;;;12.70;99.90;;;;;;6275796;22;20027;-81
2022/10/14 09:40:39;;;;;;;50.90;19.85;;;12.60;99.90;;;;;;6277135;22;20030;-81
2022/10/14 09:43:08;;;;;;;52.00;20.35;;;12.70;99.90;;;;;;6248531;22;20022;-82
2022/10/14 09:46:06;;;;;;;55.10;20.73;;;12.70;99.90;;;;;;6276320;22;20435;-82
2022/10/14 09:48:48;;;;;;;51.30;19.17;;;12.70;99.90;;;;;;6247509;22;20043;-81
2022/10/14 09:51:30;;;;;;;52.13;20.38;;;12.70;99.90;;;;;;6276117;22;20016;-81
2022/10/14 09:53:58;;;;;;;52.00;19.90;;;12.70;99.90;;;;;;6249629;22;20015;-82
2022/10/14 10:00:28;;;;;;;62.38;19.67;;;12.70;99.90;;;;;;6167530;22;20188;-82
2022/10/14 10:03:32;;;;;;;53.97;19.95;;;12.50;99.90;;;;;;6274650;22;20455;-82
2022/10/14 10:06:03;;;;;;;48.55;18.65;;;12.10;99.90;;;;;;6248439;22;20039;-82
2022/10/14 10:08:29;;;;;;;56.28;20.77;;;12.70;99.90;;;;;;6248676;22;20023;-82
2022/10/14 10:11:09;;;;;;;57.30;20.23;;;12.60;99.90;;;;;;6247866;22;20012;-82
2022/10/14 10:13:45;;;;;;;56.20;20.70;;;12.70;99.90;;;;;;6275624;22;20016;-82
2022/10/14 10:16:26;;;;;;;60.60;20.67;;;12.70;99.90;;;;;;6246791;22;20022;-82
2022/10/14 10:18:56;;;;;;;61.70;20.35;;;12.70;99.90;;;;;;6275828;22;20020;-82
2022/10/14 10:21:25;;;;;;;64.85;20.60;;;12.70;99.90;;;;;;6248279;22;20016;-81
2022/10/14 10:24:02;;;;;;;61.28;21.02;;;13.40;99.90;;;;;;6247737;22;20130;-82
2022/10/14 10:26:34;;;;;;;62.80;21.45;;;12.80;99.90;;;;;;6248273;22;20016;-82
2022/10/14 10:29:03;;;;;;;60.72;20.88;;;12.80;99.90;;;;;;6275615;22;20041;-82
2022/10/14 10:31:47;;;;;;;69.72;21.98;;;13.40;99.90;;;;;;6274787;22;20150;-82
2022/10/14 10:34:31;;;;;;;;;;;12.80;99.90;;;;;;6275976;22;20016;-82
2022/10/14 10:37:07;;;;;;;62.33;21.38;;;12.80;99.90;;;;;;6248523;22;19922;-82
2022/10/14 10:39:43;;;;;;;70.38;21.90;;;12.80;99.90;;;;;;6272547;22;20011;-81
2022/10/14 10:42:14;;;;;;;60.97;21.85;;;12.80;99.90;;;;;;6249740;22;20020;-82
2022/10/14 10:45:02;;;;;;;62.67;21.95;;;12.80;99.90;;;;;;6273175;22;20016;-82
2022/10/14 10:47:40;;;;;;;62.47;21.45;;;12.70;99.90;;;;;;6274835;22;20451;-82
2022/10/14 10:50:21;;;;;;;58.53;22.02;;;12.80;99.90;;;;;;6274536;22;20336;-82
2022/10/14 10:53:16;;;;;;;65.38;21.08;;;12.80;99.90;;;;;;6247068;22;20375;-82
2022/10/14 10:55:47;;;;;;;64.47;21.45;;;12.80;99.90;;;;;;6248722;22;20103;-82
2022/10/14 10:58:39;;;;;;;62.50;22.02;;;12.80;99.90;;;;;;6248193;22;20015;-83
2022/10/14 11:01:29;;;;;;;71.75;22.92;;;12.90;99.90;;;;;;6248882;22;20011;-85
2022/10/14 11:04:32;;;;;;;65.25;22.40;;;12.90;99.90;;;;;;6248576;22;20072;-82
2022/10/14 11:13:49;;;;;;;75.97;24.85;;;12.90;99.90;;;;;;6271780;22;20019;-82
2022/10/14 11:16:26;;;;;;;71.82;25.25;;;13.00;99.90;;;;;;6247249;22;20023;-83
2022/10/14 11:19:27;;;;;;;81.65;26.60;;;13.00;99.90;;;;;;6274753;22;20016;-83
2022/10/14 11:22:30;;;;;;;70.88;25.77;;;13.10;99.90;;;;;;6247619;22;20114;-82
2022/10/14 11:25:27;;;;;;;80.57;26.25;;;13.10;99.90;;;;;;6248239;22;20011;-81
2022/10/14 11:28:09;;;;;;;67.38;25.50;;;13.20;99.90;;;;;;6274749;22;20058;-82
2022/10/14 11:30:54;;;;;;;69.65;25.08;;;13.30;99.90;;;;;;6275818;22;20012;-81
2022/10/14 11:33:38;;;;;;;76.20;25.98;;;13.30;99.90;;;;;;6275746;22;20016;-81
2022/10/14 11:36:30;;;;;;;81.63;27.80;;;13.40;99.90;;;;;;6276057;22;20062;-81
2022/10/14 11:39:25;;;;;;;75.97;27.50;;;13.50;99.90;;;;;;6247795;22;20016;-81
2022/10/14 11:42:17;;;;;;;71.60;26.73;;;13.60;99.90;;;;;;6247426;22;20051;-81
2022/10/14 11:44:43;;;;;;;75.53;28.65;;;13.70;99.90;;;;;;6248106;22;20024;-81
2022/10/14 11:47:23;;;;;;;72.50;27.20;;;13.80;99.90;;;;;;6247529;22;20019;-80
2022/10/14 11:50:03;;;;;;;68.00;26.88;;;13.90;99.90;;;;;;6274529;22;20336;-80
2022/10/14 11:52:41;;;;;;;69.22;27.45;;;14.80;99.90;;;;;;6247803;22;20145;-81
2022/10/14 11:55:16;;;;;;;63.67;26.00;;;14.00;99.90;;;;;;6246876;22;20090;-81
2022/10/14 11:57:52;;;;;;;60.03;25.92;;;14.00;99.90;;;;;;6274486;22;20087;-82
2022/10/14 12:00:22;;;;;;;62.78;27.90;;;14.00;99.90;;;;;;6247339;22;20012;-82
2022/10/14 12:03:10;;;;;;;64.82;26.02;;;14.10;99.90;;;;;;6246789;22;20016;-82
2022/10/14 12:05:48;;;;;;;58.85;26.27;;;14.10;99.90;;;;;;6275114;22;20011;-82
2022/10/14 12:08:41;;;;;;;57.90;25.02;;;14.10;99.90;;;;;;6247108;22;20015;-82
2022/10/14 12:11:31;;;;;;;55.22;23.60;;;14.20;99.90;;;;;;6246815;22;20015;-83
2022/10/14 12:14:17;;;;;;;57.22;24.88;;;14.20;99.90;;;;;;6248064;22;20047;-82
2022/10/14 12:23:40;;;;;;;52.38;24.27;;;14.20;99.90;;;;;;6275713;22;20113;-81
2022/10/14 12:26:13;;;;;;;48.03;24.67;;;13.80;99.90;;;;;;6249504;22;20386;-82
2022/10/14 12:28:39;;;;;;;47.38;23.48;;;14.00;99.90;;;;;;6249863;22;20336;-81
2022/10/14 12:31:42;;;;;;;46.05;23.30;;;14.10;99.90;;;;;;6276035;22;20026;-81
2022/10/14 12:34:10;;;;;;;47.58;23.33;;;14.10;99.90;;;;;;6249592;22;20015;-82
2022/10/14 12:36:37;;;;;;;49.53;23.80;;;14.10;99.90;;;;;;6277348;22;20023;-82
2022/10/14 12:39:21;;;;;;;48.53;23.05;;;14.10;99.90;;;;;;6248833;22;20077;-81
2022/10/14 12:41:56;;;;;;;43.30;22.10;;;14.40;99.90;;;;;;6249694;22;20451;-81
2022/10/14 12:44:28;;;;;;;41.55;22.77;;;14.20;99.90;;;;;;6248450;22;20015;-81
2022/10/14 12:46:54;;;;;;;42.10;21.00;;;14.30;99.90;;;;;;6249867;22;20355;-81
2022/10/14 12:49:36;;;;;;;39.83;21.33;;;14.40;99.90;;;;;;6249164;22;20043;-81
2022/10/14 12:52:07;;;;;;;35.88;19.70;;;14.50;99.90;;;;;;6248879;22;20344;-81
2022/10/14 12:54:35;;;;;;;34.08;19.85;;;14.50;99.90;;;;;;6276981;22;20095;-81
2022/10/14 12:57:32;;;;;;;36.85;20.92;;;14.50;99.90;;;;;;6276109;22;20012;-81
2022/10/14 13:00:08;;;;;;;39.75;20.10;;;14.50;99.90;;;;;;6248598;22;20102;-81
2022/10/14 13:02:43;;;;;;;36.42;20.08;;;14.50;99.90;;;;;;6248895;22;20054;-81
2022/10/14 13:05:36;;;;;;;35.63;19.38;;;14.50;99.90;;;;;;6247836;22;20479;-81
2022/10/14 13:08:24;;;;;;;35.03;19.58;;;14.50;99.90;;;;;;6249694;22;20019;-82
2022/10/14 13:11:01;;;;;;;33.63;19.58;;;14.50;99.90;;;;;;6249550;22;20020;-81
2022/10/14 13:13:40;;;;;;;34.20;19.75;;;14.50;99.90;;;;;;6248101;22;20020;-82
2022/10/14 13:16:07;;;;;;;38.08;21.17;;;14.50;99.90;;;;;;6248983;22;20073;-82
2022/10/14 13:18:47;;;;;;;37.05;20.65;;;14.50;99.90;;;;;;6276394;22;20012;-82
2022/10/14 13:21:33;;;;;;;33.20;18.80;;;14.50;99.90;;;;;;6248065;22;20019;-81
2022/10/14 13:24:25;;;;;;;32.97;17.50;;;14.60;99.90;;;;;;6276859;22;20188;-81
2022/10/14 13:26:53;;;;;;;33.33;17.85;;;14.60;99.90;;;;;;6248523;22;20406;-82
2022/10/14 13:31:59;;;;;;;29.27;16.85;;;14.60;99.90;;;;;;6269903;22;20042;-82
2022/10/14 13:34:46;;;;;;;28.05;16.35;;;15.90;99.90;;;;;;6247105;22;20055;-82
2022/10/14 13:37:33;;;;;;;30.30;17.35;;;14.70;99.90;;;;;;6275643;22;20012;-81
2022/10/14 13:40:33;;;;;;;29.48;16.50;;;14.70;99.90;;;;;;6275987;22;20020;-81
2022/10/14 13:43:01;;;;;;;27.02;16.63;;;14.70;99.90;;;;;;6275694;22;20470;-81
2022/10/14 13:45:39;;;;;;;28.83;16.65;;;14.70;99.90;;;;;;6275968;22;20090;-81
2022/10/14 13:48:04;;;;;;;28.52;17.42;;;14.80;99.90;;;;;;6247965;22;20043;-80
2022/10/14 13:50:40;;;;;;;31.73;18.98;;;14.70;99.90;;;;;;6248343;22;20016;-81
2022/10/14 13:53:16;;;;;;;31.17;18.38;;;14.70;99.90;;;;;;6248433;22;20379;-81
2022/10/14 13:55:44;;;;;;;26.95;16.50;;;14.70;99.90;;;;;;6248131;22;20016;-81
2022/10/14 13:58:15;;;;;;;29.30;17.50;;;14.60;99.90;;;;;;6276095;22;20008;-81
2022/10/14 14:01:01;;;;;;;28.30;16.92;;;14.60;99.90;;;;;;6275865;22;20015;-82
2022/10/14 14:03:55;;;;;;;29.70;17.25;;;14.60;99.90;;;;;;6272384;22;20023;-81
2022/10/14 14:06:23;;;;;;;29.30;16.88;;;14.50;99.90;;;;;;6240780;22;20022;-81
2022/10/14 14:08:59;;;;;;;29.33;17.42;;;14.50;99.90;;;;;;6246916;22;20069;-81
2022/10/14 14:11:27;;;;;;;29.17;17.83;;;14.50;99.90;;;;;;6248054;22;20023;-81
2022/10/14 14:14:20;;;;;;;29.02;17.45;;;14.50;99.90;;;;;;6247535;22;20023;-81
2022/10/14 14:16:56;;;;;;;30.90;18.48;;;14.50;99.90;;;;;;6246806;22;20019;-81
2022/10/14 14:19:36;;;;;;;28.67;17.52;;;14.50;99.90;;;;;;6247312;22;20107;-82
2022/10/14 14:22:14;;;;;;;30.20;18.13;;;14.50;99.90;;;;;;6248485;22;20065;-82
2022/10/14 14:24:40;;;;;;;33.15;19.58;;;14.80;99.90;;;;;;6275607;22;20016;-82
2022/10/14 14:27:14;;;;;;;31.20;19.50;;;14.50;99.90;;;;;;6248123;22;20019;-82
2022/10/14 14:29:46;;;;;;;32.95;19.90;;;14.50;99.90;;;;;;6274988;22;20015;-81